sensor_id;sensor_type;location;lat;lon;timestamp;pressure;altitude;pressure_sealevel;temperature;humidity
17772;BME280;9010;32.624;-96.938;2022-11-03T00:01:33;99488.19;;;20.70;100.00
17772;BME280;9010;32.624;-96.938;2022-11-03T00:04:02;99491.56;;;20.62;100.00
17772;BME280;9010;32.624;-96.938;2022-11-03T00:06:31;99494.09;;;20.54;100.00
17772;BME280;9010;32.624;-96.938;2022-11-03T00:09:00;99490.56;;;20.54;100.00
17772;BME280;9010;32.624;-96.938;2022-11-03T00:11:30;99492.34;;;20.44;100.00
17772;BME280;9010;32.624;-96.938;2022-11-03T00:13:59;99499.50;;;20.34;100.00
17772;BME280;9010;32.624;-96.938;2022-11-03T00:16:27;99495.09;;;20.23;100.00
17772;BME280;9010;32.624;-96.938;2022-11-03T00:18:57;99503.19;;;20.12;100.00
17772;BME280;9010;32.624;-96.938;2022-11-03T00:21:25;99511.00;;;20.04;100.00
17772;BME280;9010;32.624;-96.938;2022-11-03T00:23:53;99510.44;;;20.00;100.00
17772;BME280;9010;32.624;-96.938;2022-11-03T00:26:23;99507.72;;;19.91;100.00
17772;BME280;9010;32.624;-96.938;2022-11-03T00:28:53;99509.34;;;19.82;100.00
17772;BME280;9010;32.624;-96.938;2022-11-03T00:31:23;99510.03;;;19.75;100.00
17772;BME280;9010;32.624;-96.938;2022-11-03T00:33:55;99512.88;;;19.83;100.00
17772;BME280;9010;32.624;-96.938;2022-11-03T00:36:26;99511.69;;;19.76;100.00
17772;BME280;9010;32.624;-96.938;2022-11-03T00:38:55;99515.63;;;19.72;100.00
17772;BME280;9010;32.624;-96.938;2022-11-03T00:41:25;99510.81;;;19.66;100.00
17772;BME280;9010;32.624;-96.938;2022-11-03T00:43:53;99516.41;;;19.63;100.00
17772;BME280;9010;32.624;-96.938;2022-11-03T00:46:23;99512.88;;;19.62;100.00
17772;BME280;9010;32.624;-96.938;2022-11-03T00:48:51;99508.19;;;19.55;100.00
17772;BME280;9010;32.624;-96.938;2022-11-03T00:51:21;99515.75;;;19.49;100.00
17772;BME280;9010;32.624;-96.938;2022-11-03T00:53:53;99524.97;;;19.45;100.00
17772;BME280;9010;32.624;-96.938;2022-11-03T00:56:23;99515.16;;;19.46;100.00
17772;BME280;9010;32.624;-96.938;2022-11-03T00:58:52;99519.38;;;19.48;100.00
17772;BME280;9010;32.624;-96.938;2022-11-03T01:01:22;99514.50;;;19.54;100.00
17772;BME280;9010;32.624;-96.938;2022-11-03T01:03:52;99523.63;;;19.51;100.00
17772;BME280;9010;32.624;-96.938;2022-11-03T01:06:39;99523.63;;;19.51;100.00
17772;BME280;9010;32.624;-96.938;2022-11-03T01:09:19;99526.34;;;19.40;100.00
17772;BME280;9010;32.624;-96.938;2022-11-03T01:11:52;99525.13;;;19.33;100.00
17772;BME280;9010;32.624;-96.938;2022-11-03T01:14:23;99529.63;;;19.32;100.00
17772;BME280;9010;32.624;-96.938;2022-11-03T01:16:52;99526.47;;;19.27;100.00
17772;BME280;9010;32.624;-96.938;2022-11-03T01:19:20;99527.00;;;19.21;100.00
17772;BME280;9010;32.624;-96.938;2022-11-03T01:21:49;99530.28;;;19.14;100.00
17772;BME280;9010;32.624;-96.938;2022-11-03T01:24:19;99527.16;;;19.09;100.00
17772;BME280;9010;32.624;-96.938;2022-11-03T01:26:47;99530.09;;;19.06;100.00
17772;BME280;9010;32.624;-96.938;2022-11-03T01:29:16;99533.59;;;19.06;100.00
17772;BME280;9010;32.624;-96.938;2022-11-03T01:31:44;99521.25;;;19.05;100.00
17772;BME280;9010;32.624;-96.938;2022-11-03T01:34:13;99535.03;;;19.10;100.00
17772;BME280;9010;32.624;-96.938;2022-11-03T01:36:42;99530.34;;;19.03;100.00
17772;BME280;9010;32.624;-96.938;2022-11-03T01:39:11;99533.41;;;18.98;100.00
17772;BME280;9010;32.624;-96.938;2022-11-03T01:41:42;99537.22;;;19.05;100.00
17772;BME280;9010;32.624;-96.938;2022-11-03T01:44:26;99533.22;;;19.11;100.00
17772;BME280;9010;32.624;-96.938;2022-11-03T01:46:59;99527.03;;;19.10;100.00
17772;BME280;9010;32.624;-96.938;2022-11-03T01:49:32;99528.09;;;19.19;100.00
17772;BME280;9010;32.624;-96.938;2022-11-03T01:52:05;99528.22;;;19.17;100.00
17772;BME280;9010;32.624;-96.938;2022-11-03T01:54:36;99527.00;;;19.21;100.00
17772;BME280;9010;32.624;-96.938;2022-11-03T01:57:10;99528.19;;;19.28;100.00
17772;BME280;9010;32.624;-96.938;2022-11-03T01:59:39;99523.56;;;19.30;100.00
17772;BME280;9010;32.624;-96.938;2022-11-03T02:02:08;99524.03;;;19.35;100.00
17772;BME280;9010;32.624;-96.938;2022-11-03T02:04:36;99531.03;;;19.36;100.00
17772;BME280;9010;32.624;-96.938;2022-11-03T02:07:12;99524.75;;;19.37;100.00
17772;BME280;9010;32.624;-96.938;2022-11-03T02:09:42;99516.84;;;19.36;100.00
17772;BME280;9010;32.624;-96.938;2022-11-03T02:12:13;99519.13;;;19.52;100.00
17772;BME280;9010;32.624;-96.938;2022-11-03T02:14:49;99511.03;;;19.42;100.00
17772;BME280;9010;32.624;-96.938;2022-11-03T02:17:20;99511.84;;;19.54;100.00
17772;BME280;9010;32.624;-96.938;2022-11-03T02:19:51;99507.69;;;19.61;100.00
17772;BME280;9010;32.624;-96.938;2022-11-03T02:22:58;99517.75;;;19.57;100.00
17772;BME280;9010;32.624;-96.938;2022-11-03T02:25:41;99509.34;;;19.62;100.00
17772;BME280;9010;32.624;-96.938;2022-11-03T02:28:11;99512.50;;;19.67;100.00
17772;BME280;9010;32.624;-96.938;2022-11-03T02:30:43;99512.44;;;19.78;100.00
17772;BME280;9010;32.624;-96.938;2022-11-03T02:33:27;99519.16;;;19.82;100.00
17772;BME280;9010;32.624;-96.938;2022-11-03T02:36:01;99524.66;;;19.80;100.00
17772;BME280;9010;32.624;-96.938;2022-11-03T02:38:33;99528.63;;;19.86;100.00
17772;BME280;9010;32.624;-96.938;2022-11-03T02:41:07;99530.03;;;19.90;100.00
17772;BME280;9010;32.624;-96.938;2022-11-03T02:43:36;99528.09;;;19.92;100.00
17772;BME280;9010;32.624;-96.938;2022-11-03T02:46:06;99538.50;;;19.95;100.00
17772;BME280;9010;32.624;-96.938;2022-11-03T02:48:34;99530.50;;;19.95;100.00
17772;BME280;9010;32.624;-96.938;2022-11-03T02:51:03;99530.00;;;19.80;100.00
17772;BME280;9010;32.624;-96.938;2022-11-03T02:53:35;99526.03;;;19.75;100.00
17772;BME280;9010;32.624;-96.938;2022-11-03T02:56:10;99526.28;;;19.72;100.00
17772;BME280;9010;32.624;-96.938;2022-11-03T02:58:45;99523.19;;;19.67;100.00
17772;BME280;9010;32.624;-96.938;2022-11-03T03:01:18;99524.00;;;19.67;100.00
17772;BME280;9010;32.624;-96.938;2022-11-03T03:03:52;99516.06;;;19.56;100.00
17772;BME280;9010;32.624;-96.938;2022-11-03T03:06:24;99522.16;;;19.47;100.00
17772;BME280;9010;32.624;-96.938;2022-11-03T03:08:55;99534.53;;;19.48;100.00
17772;BME280;9010;32.624;-96.938;2022-11-03T03:11:27;99533.13;;;19.44;100.00
17772;BME280;9010;32.624;-96.938;2022-11-03T03:14:09;99542.19;;;19.41;100.00
17772;BME280;9010;32.624;-96.938;2022-11-03T03:16:47;99544.78;;;19.32;100.00
17772;BME280;9010;32.624;-96.938;2022-11-03T03:19:25;99530.66;;;19.20;100.00
17772;BME280;9010;32.624;-96.938;2022-11-03T03:21:57;99537.59;;;19.12;100.00
17772;BME280;9010;32.624;-96.938;2022-11-03T03:24:35;99533.84;;;19.03;100.00
17772;BME280;9010;32.624;-96.938;2022-11-03T03:27:10;99536.06;;;18.98;100.00
17772;BME280;9010;32.624;-96.938;2022-11-03T03:29:43;99545.50;;;18.91;100.00
17772;BME280;9010;32.624;-96.938;2022-11-03T03:32:14;99546.75;;;18.87;100.00
17772;BME280;9010;32.624;-96.938;2022-11-03T03:34:46;99540.69;;;18.85;100.00
17772;BME280;9010;32.624;-96.938;2022-11-03T03:37:16;99537.03;;;18.97;100.00
17772;BME280;9010;32.624;-96.938;2022-11-03T03:39:50;99540.91;;;18.93;100.00
17772;BME280;9010;32.624;-96.938;2022-11-03T03:42:22;99540.31;;;18.89;100.00
17772;BME280;9010;32.624;-96.938;2022-11-03T03:44:54;99538.22;;;18.93;100.00
17772;BME280;9010;32.624;-96.938;2022-11-03T03:47:27;99539.34;;;18.90;100.00
17772;BME280;9010;32.624;-96.938;2022-11-03T03:49:56;99533.00;;;19.03;100.00
17772;BME280;9010;32.624;-96.938;2022-11-03T03:52:24;99533.47;;;19.08;100.00
17772;BME280;9010;32.624;-96.938;2022-11-03T03:54:54;99539.28;;;19.02;100.00
17772;BME280;9010;32.624;-96.938;2022-11-03T03:57:26;99530.00;;;18.96;100.00
17772;BME280;9010;32.624;-96.938;2022-11-03T03:59:57;99523.31;;;19.02;100.00
17772;BME280;9010;32.624;-96.938;2022-11-03T04:02:25;99518.63;;;18.94;100.00
17772;BME280;9010;32.624;-96.938;2022-11-03T04:04:53;99530.22;;;19.04;100.00
17772;BME280;9010;32.624;-96.938;2022-11-03T04:07:23;99521.00;;;19.08;100.00
17772;BME280;9010;32.624;-96.938;2022-11-03T04:10:08;99526.81;;;19.02;100.00
17772;BME280;9010;32.624;-96.938;2022-11-03T04:12:39;99530.47;;;19.01;100.00
17772;BME280;9010;32.624;-96.938;2022-11-03T04:15:24;99529.63;;;19.01;100.00
17772;BME280;9010;32.624;-96.938;2022-11-03T04:18:12;99521.25;;;19.05;100.00
17772;BME280;9010;32.624;-96.938;2022-11-03T04:20:57;99516.25;;;19.12;100.00
17772;BME280;9010;32.624;-96.938;2022-11-03T04:23:42;99519.97;;;19.20;100.00
17772;BME280;9010;32.624;-96.938;2022-11-03T04:26:12;99507.34;;;19.22;100.00
17772;BME280;9010;32.624;-96.938;2022-11-03T04:28:43;99523.53;;;19.41;100.00
17772;BME280;9010;32.624;-96.938;2022-11-03T04:31:12;99526.69;;;19.46;100.00
17772;BME280;9010;32.624;-96.938;2022-11-03T04:33:41;99527.59;;;19.57;100.00
17772;BME280;9010;32.624;-96.938;2022-11-03T04:36:19;99518.28;;;19.51;100.00
17772;BME280;9010;32.624;-96.938;2022-11-03T04:38:48;99518.63;;;19.58;100.00
17772;BME280;9010;32.624;-96.938;2022-11-03T04:41:19;99518.47;;;19.59;100.00
17772;BME280;9010;32.624;-96.938;2022-11-03T04:43:49;99517.75;;;19.57;100.00
17772;BME280;9010;32.624;-96.938;2022-11-03T04:46:23;99509.88;;;19.56;100.00
17772;BME280;9010;32.624;-96.938;2022-11-03T04:48:52;99516.91;;;19.57;100.00
17772;BME280;9010;32.624;-96.938;2022-11-03T04:51:24;99520.44;;;19.57;100.00
17772;BME280;9010;32.624;-96.938;2022-11-03T04:53:54;99505.84;;;19.61;100.00
17772;BME280;9010;32.624;-96.938;2022-11-03T04:56:25;99516.81;;;19.58;100.00
17772;BME280;9010;32.624;-96.938;2022-11-03T04:58:57;99518.63;;;19.58;100.00
17772;BME280;9010;32.624;-96.938;2022-11-03T05:01:26;99516.66;;;19.60;100.00
17772;BME280;9010;32.624;-96.938;2022-11-03T05:03:55;99501.69;;;19.47;100.00
17772;BME280;9010;32.624;-96.938;2022-11-03T05:06:26;99498.03;;;19.48;100.00
17772;BME280;9010;32.624;-96.938;2022-11-03T05:08:57;99500.00;;;19.46;100.00
17772;BME280;9010;32.624;-96.938;2022-11-03T05:11:29;99496.75;;;19.43;100.00
17772;BME280;9010;32.624;-96.938;2022-11-03T05:14:02;99496.84;;;19.41;100.00
17772;BME280;9010;32.624;-96.938;2022-11-03T05:16:31;99488.16;;;19.39;100.00
17772;BME280;9010;32.624;-96.938;2022-11-03T05:19:00;99499.28;;;19.44;100.00
17772;BME280;9010;32.624;-96.938;2022-11-03T05:21:29;99484.97;;;19.45;100.00
17772;BME280;9010;32.624;-96.938;2022-11-03T05:24:00;99483.00;;;19.47;100.00
17772;BME280;9010;32.624;-96.938;2022-11-03T05:26:31;99481.59;;;19.43;100.00
17772;BME280;9010;32.624;-96.938;2022-11-03T05:29:03;99488.16;;;19.39;100.00
17772;BME280;9010;32.624;-96.938;2022-11-03T05:31:36;99472.38;;;19.36;100.00
17772;BME280;9010;32.624;-96.938;2022-11-03T05:34:20;99473.13;;;19.38;100.00
17772;BME280;9010;32.624;-96.938;2022-11-03T05:36:50;99473.84;;;19.40;100.00
17772;BME280;9010;32.624;-96.938;2022-11-03T05:39:28;99474.44;;;19.44;100.00
17772;BME280;9010;32.624;-96.938;2022-11-03T05:41:57;99472.84;;;19.41;100.00
17772;BME280;9010;32.624;-96.938;2022-11-03T05:44:33;99469.59;;;19.38;100.00
17772;BME280;9010;32.624;-96.938;2022-11-03T05:47:02;99466.31;;;19.45;100.00
17772;BME280;9010;32.624;-96.938;2022-11-03T05:49:36;99463.41;;;19.37;100.00
17772;BME280;9010;32.624;-96.938;2022-11-03T05:52:07;99467.31;;;19.33;100.00
17772;BME280;9010;32.624;-96.938;2022-11-03T05:54:39;99464.19;;;19.28;100.00
17772;BME280;9010;32.624;-96.938;2022-11-03T05:57:10;99470.97;;;19.32;100.00
17772;BME280;9010;32.624;-96.938;2022-11-03T05:59:40;99472.19;;;19.28;100.00
17772;BME280;9010;32.624;-96.938;2022-11-03T06:02:25;99472.31;;;19.27;100.00
17772;BME280;9010;32.624;-96.938;2022-11-03T06:04:56;99475.25;;;19.24;100.00
17772;BME280;9010;32.624;-96.938;2022-11-03T06:07:25;99478.03;;;19.22;100.00
17772;BME280;9010;32.624;-96.938;2022-11-03T06:09:54;99472.25;;;19.17;100.00
17772;BME280;9010;32.624;-96.938;2022-11-03T06:12:23;99473.94;;;19.18;100.00
17772;BME280;9010;32.624;-96.938;2022-11-03T06:14:53;99469.69;;;19.16;100.00
17772;BME280;9010;32.624;-96.938;2022-11-03T06:17:23;99465.47;;;19.13;100.00
17772;BME280;9010;32.624;-96.938;2022-11-03T06:19:55;99475.75;;;19.18;100.00
17772;BME280;9010;32.624;-96.938;2022-11-03T06:22:26;99472.31;;;19.27;100.00
17772;BME280;9010;32.624;-96.938;2022-11-03T06:24:58;99471.66;;;19.14;100.00
17772;BME280;9010;32.624;-96.938;2022-11-03T06:27:29;99468.88;;;19.15;100.00
17772;BME280;9010;32.624;-96.938;2022-11-03T06:30:12;99472.59;;;19.24;100.00
17772;BME280;9010;32.624;-96.938;2022-11-03T06:32:45;99478.75;;;19.24;100.00
17772;BME280;9010;32.624;-96.938;2022-11-03T06:35:13;99467.41;;;19.11;100.00
17772;BME280;9010;32.624;-96.938;2022-11-03T06:37:42;99472.94;;;19.19;100.00
17772;BME280;9010;32.624;-96.938;2022-11-03T06:40:32;99476.63;;;19.18;100.00
17772;BME280;9010;32.624;-96.938;2022-11-03T06:43:15;99471.66;;;19.14;100.00
17772;BME280;9010;32.624;-96.938;2022-11-03T06:45:54;99461.38;;;19.09;100.00
17772;BME280;9010;32.624;-96.938;2022-11-03T06:48:25;99479.53;;;19.15;100.00
17772;BME280;9010;32.624;-96.938;2022-11-03T06:50:55;99478.16;;;19.21;100.00
17772;BME280;9010;32.624;-96.938;2022-11-03T06:53:27;99470.78;;;19.13;100.00
17772;BME280;9010;32.624;-96.938;2022-11-03T06:55:56;99475.56;;;19.10;100.00
17772;BME280;9010;32.624;-96.938;2022-11-03T06:58:30;99464.16;;;19.08;100.00
17772;BME280;9010;32.624;-96.938;2022-11-03T07:01:02;99465.72;;;19.10;100.00
17772;BME280;9010;32.624;-96.938;2022-11-03T07:03:31;99458.25;;;19.04;100.00
17772;BME280;9010;32.624;-96.938;2022-11-03T07:06:13;99458.56;;;19.11;100.00
17772;BME280;9010;32.624;-96.938;2022-11-03T07:08:44;99467.88;;;19.16;100.00
17772;BME280;9010;32.624;-96.938;2022-11-03T07:11:16;99462.69;;;19.15;100.00
17772;BME280;9010;32.624;-96.938;2022-11-03T07:13:45;99461.97;;;19.13;100.00
17772;BME280;9010;32.624;-96.938;2022-11-03T07:16:20;99464.84;;;19.21;100.00
17772;BME280;9010;32.624;-96.938;2022-11-03T07:18:51;99459.09;;;19.25;100.00
17772;BME280;9010;32.624;-96.938;2022-11-03T07:21:33;99458.41;;;19.23;100.00
17772;BME280;9010;32.624;-96.938;2022-11-03T07:24:09;99442.22;;;19.15;100.00
17772;BME280;9010;32.624;-96.938;2022-11-03T07:26:40;99454.47;;;19.27;100.00
17772;BME280;9010;32.624;-96.938;2022-11-03T07:29:14;99457.16;;;19.27;100.00
17772;BME280;9010;32.624;-96.938;2022-11-03T07:31:46;99460.41;;;19.31;100.00
17772;BME280;9010;32.624;-96.938;2022-11-03T07:34:19;99456.63;;;19.33;100.00
17772;BME280;9010;32.624;-96.938;2022-11-03T07:36:49;99454.72;;;19.35;100.00
17772;BME280;9010;32.624;-96.938;2022-11-03T07:39:18;99436.03;;;19.35;100.00
17772;BME280;9010;32.624;-96.938;2022-11-03T07:41:47;99445.22;;;19.42;100.00
17772;BME280;9010;32.624;-96.938;2022-11-03T07:44:18;99435.53;;;19.41;100.00
17772;BME280;9010;32.624;-96.938;2022-11-03T07:46:49;99436.50;;;19.40;100.00
17772;BME280;9010;32.624;-96.938;2022-11-03T07:49:24;99436.00;;;19.46;100.00
17772;BME280;9010;32.624;-96.938;2022-11-03T07:51:54;99423.94;;;19.52;100.00
17772;BME280;9010;32.624;-96.938;2022-11-03T07:54:25;99417.78;;;19.52;100.00
17772;BME280;9010;32.624;-96.938;2022-11-03T07:56:56;99417.25;;;19.58;100.00
17772;BME280;9010;32.624;-96.938;2022-11-03T07:59:29;99402.91;;;19.59;100.00
17772;BME280;9010;32.624;-96.938;2022-11-03T08:02:05;99421.78;;;19.67;100.00
17772;BME280;9010;32.624;-96.938;2022-11-03T08:04:40;99420.78;;;19.68;100.00
17772;BME280;9010;32.624;-96.938;2022-11-03T08:07:08;99426.00;;;19.69;100.00
17772;BME280;9010;32.624;-96.938;2022-11-03T08:09:36;99423.47;;;19.68;100.00
17772;BME280;9010;32.624;-96.938;2022-11-03T08:12:05;99418.19;;;19.77;100.00
17772;BME280;9010;32.624;-96.938;2022-11-03T08:14:33;99416.91;;;19.81;100.00
17772;BME280;9010;32.624;-96.938;2022-11-03T08:17:04;99415.50;;;19.77;100.00
17772;BME280;9010;32.624;-96.938;2022-11-03T08:19:32;99414.78;;;19.75;100.00
17772;BME280;9010;32.624;-96.938;2022-11-03T08:22:01;99408.63;;;19.75;100.00
17772;BME280;9010;32.624;-96.938;2022-11-03T08:24:29;99414.66;;;19.77;100.00
17772;BME280;9010;32.624;-96.938;2022-11-03T08:26:57;99407.63;;;19.76;100.00
17772;BME280;9010;32.624;-96.938;2022-11-03T08:29:25;99406.66;;;19.77;100.00
17772;BME280;9010;32.624;-96.938;2022-11-03T08:31:54;99403.03;;;19.78;100.00
17772;BME280;9010;32.624;-96.938;2022-11-03T08:34:23;99390.06;;;19.73;100.00
17772;BME280;9010;32.624;-96.938;2022-11-03T08:36:52;99399.31;;;19.69;100.00
17772;BME280;9010;32.624;-96.938;2022-11-03T08:39:20;99394.16;;;19.77;100.00
17772;BME280;9010;32.624;-96.938;2022-11-03T08:41:48;99391.59;;;19.76;100.00
17772;BME280;9010;32.624;-96.938;2022-11-03T08:44:16;99395.97;;;19.77;100.00
17772;BME280;9010;32.624;-96.938;2022-11-03T08:46:45;99393.44;;;19.75;100.00
17772;BME280;9010;32.624;-96.938;2022-11-03T08:49:13;99389.47;;;19.70;100.00
17772;BME280;9010;32.624;-96.938;2022-11-03T08:51:43;99396.25;;;19.74;100.00
17772;BME280;9010;32.624;-96.938;2022-11-03T08:54:11;99390.38;;;19.80;100.00
17772;BME280;9010;32.624;-96.938;2022-11-03T08:56:39;99388.13;;;19.85;100.00
17772;BME280;9010;32.624;-96.938;2022-11-03T08:59:08;99382.81;;;19.85;100.00
17772;BME280;9010;32.624;-96.938;2022-11-03T09:01:37;99390.22;;;19.81;100.00
17772;BME280;9010;32.624;-96.938;2022-11-03T09:04:05;99386.44;;;19.74;100.00
17772;BME280;9010;32.624;-96.938;2022-11-03T09:06:33;99386.69;;;19.71;100.00
17772;BME280;9010;32.624;-96.938;2022-11-03T09:09:03;99388.69;;;19.79;100.00
17772;BME280;9010;32.624;-96.938;2022-11-03T09:11:31;99390.09;;;19.83;100.00
17772;BME280;9010;32.624;-96.938;2022-11-03T09:14:00;99380.41;;;19.82;100.00
17772;BME280;9010;32.624;-96.938;2022-11-03T09:16:28;99389.09;;;19.84;100.00
17772;BME280;9010;32.624;-96.938;2022-11-03T09:18:56;99376.34;;;19.78;100.00
17772;BME280;9010;32.624;-96.938;2022-11-03T09:21:24;99367.06;;;19.82;100.00
17772;BME280;9010;32.624;-96.938;2022-11-03T09:23:52;99359.47;;;19.87;100.00
17772;BME280;9010;32.624;-96.938;2022-11-03T09:26:22;99357.13;;;19.93;100.00
17772;BME280;9010;32.624;-96.938;2022-11-03T09:28:51;99350.78;;;19.85;100.00
17772;BME280;9010;32.624;-96.938;2022-11-03T09:31:19;99349.81;;;19.86;100.00
17772;BME280;9010;32.624;-96.938;2022-11-03T09:33:47;99345.16;;;19.88;100.00
17772;BME280;9010;32.624;-96.938;2022-11-03T09:36:15;99351.91;;;19.82;100.00
17772;BME280;9010;32.624;-96.938;2022-11-03T09:38:44;99350.78;;;19.85;100.00
17772;BME280;9010;32.624;-96.938;2022-11-03T09:41:12;99346.88;;;19.89;100.00
17772;BME280;9010;32.624;-96.938;2022-11-03T09:43:44;99352.22;;;19.89;100.00
17772;BME280;9010;32.624;-96.938;2022-11-03T09:46:13;99352.22;;;19.89;100.00
17772;BME280;9010;32.624;-96.938;2022-11-03T09:48:43;99344.75;;;19.83;100.00
17772;BME280;9010;32.624;-96.938;2022-11-03T09:51:15;99355.56;;;19.91;100.00
17772;BME280;9010;32.624;-96.938;2022-11-03T09:53:46;99360.66;;;19.94;100.00
17772;BME280;9010;32.624;-96.938;2022-11-03T09:56:15;99365.41;;;19.90;100.00
17772;BME280;9010;32.624;-96.938;2022-11-03T09:58:46;99369.59;;;19.83;100.00
17772;BME280;9010;32.624;-96.938;2022-11-03T10:01:14;99369.59;;;19.83;100.00
17772;BME280;9010;32.624;-96.938;2022-11-03T10:03:43;99363.00;;;19.78;100.00
17772;BME280;9010;32.624;-96.938;2022-11-03T10:06:11;99371.00;;;19.87;100.00
17772;BME280;9010;32.624;-96.938;2022-11-03T10:08:43;99368.22;;;19.89;100.00
17772;BME280;9010;32.624;-96.938;2022-11-03T10:11:12;99365.00;;;19.95;100.00
17772;BME280;9010;32.624;-96.938;2022-11-03T10:13:42;99357.81;;;19.95;100.00
17772;BME280;9010;32.624;-96.938;2022-11-03T10:16:16;99364.84;;;19.96;100.00
17772;BME280;9010;32.624;-96.938;2022-11-03T10:18:45;99359.53;;;19.96;100.00
17772;BME280;9010;32.624;-96.938;2022-11-03T10:21:15;99352.22;;;19.89;100.00
17772;BME280;9010;32.624;-96.938;2022-11-03T10:23:44;99353.59;;;19.93;100.00
17772;BME280;9010;32.624;-96.938;2022-11-03T10:26:16;99348.66;;;19.79;100.00
17772;BME280;9010;32.624;-96.938;2022-11-03T10:29:00;99358.09;;;19.83;100.00
17772;BME280;9010;32.624;-96.938;2022-11-03T10:31:35;99346.88;;;19.89;100.00
17772;BME280;9010;32.624;-96.938;2022-11-03T10:34:04;99342.94;;;19.93;100.00
17772;BME280;9010;32.624;-96.938;2022-11-03T10:36:33;99336.19;;;19.89;100.00
17772;BME280;9010;32.624;-96.938;2022-11-03T10:39:23;99346.41;;;19.84;100.00
17772;BME280;9010;32.624;-96.938;2022-11-03T10:41:56;99338.13;;;19.77;100.00
17772;BME280;9010;32.624;-96.938;2022-11-03T10:44:25;99335.31;;;19.79;100.00
17772;BME280;9010;32.624;-96.938;2022-11-03T10:47:00;99334.47;;;19.78;100.00
17772;BME280;9010;32.624;-96.938;2022-11-03T10:49:29;99342.06;;;19.92;100.00
17772;BME280;9010;32.624;-96.938;2022-11-03T10:52:08;99343.34;;;19.98;100.00
17772;BME280;9010;32.624;-96.938;2022-11-03T10:54:41;99341.81;;;19.86;100.00
17772;BME280;9010;32.624;-96.938;2022-11-03T10:57:10;99330.97;;;19.87;100.00
17772;BME280;9010;32.624;-96.938;2022-11-03T10:59:38;99356.69;;;19.88;100.00
17772;BME280;9010;32.624;-96.938;2022-11-03T11:02:15;99362.31;;;19.85;100.00
17772;BME280;9010;32.624;-96.938;2022-11-03T11:04:46;99362.84;;;19.79;100.00
17772;BME280;9010;32.624;-96.938;2022-11-03T11:07:19;99361.03;;;19.80;100.00
17772;BME280;9010;32.624;-96.938;2022-11-03T11:09:50;99356.13;;;19.85;100.00
17772;BME280;9010;32.624;-96.938;2022-11-03T11:12:20;99360.34;;;19.87;100.00
17772;BME280;9010;32.624;-96.938;2022-11-03T11:14:56;99358.66;;;19.96;100.00
17772;BME280;9010;32.624;-96.938;2022-11-03T11:17:45;99358.09;;;19.92;100.00
17772;BME280;9010;32.624;-96.938;2022-11-03T11:20:41;99351.31;;;19.79;100.00
17772;BME280;9010;32.624;-96.938;2022-11-03T11:26:16;99353.00;;;19.80;100.00
17772;BME280;9010;32.624;-96.938;2022-11-03T11:38:55;99336.06;;;20.00;100.00
17772;BME280;9010;32.624;-96.938;2022-11-03T11:44:49;99355.31;;;19.94;100.00
17772;BME280;9010;32.624;-96.938;2022-11-03T11:47:21;99352.75;;;19.83;100.00
17772;BME280;9010;32.624;-96.938;2022-11-03T11:52:44;99365.56;;;19.89;100.00
17772;BME280;9010;32.624;-96.938;2022-11-03T11:55:18;99361.19;;;19.88;100.00
17772;BME280;9010;32.624;-96.938;2022-11-03T11:57:48;99349.81;;;19.86;100.00
17772;BME280;9010;32.624;-96.938;2022-11-03T12:00:20;99359.22;;;19.90;100.00
17772;BME280;9010;32.624;-96.938;2022-11-03T12:02:50;99352.22;;;19.89;100.00
17772;BME280;9010;32.624;-96.938;2022-11-03T12:05:20;99341.38;;;19.81;100.00
17772;BME280;9010;32.624;-96.938;2022-11-03T12:07:49;99337.88;;;19.90;100.00
17772;BME280;9010;32.624;-96.938;2022-11-03T12:10:20;99340.94;;;19.85;100.00
17772;BME280;9010;32.624;-96.938;2022-11-03T12:12:51;99330.28;;;19.85;100.00
17772;BME280;9010;32.624;-96.938;2022-11-03T12:15:47;99333.22;;;19.82;100.00
17772;BME280;9010;32.624;-96.938;2022-11-03T12:18:30;99331.50;;;19.81;100.00
17772;BME280;9010;32.624;-96.938;2022-11-03T12:20:58;99320.03;;;19.81;100.00
17772;BME280;9010;32.624;-96.938;2022-11-03T12:23:38;99318.50;;;19.97;100.00
17772;BME280;9010;32.624;-96.938;2022-11-03T12:26:14;99320.72;;;19.92;100.00
17772;BME280;9010;32.624;-96.938;2022-11-03T12:28:43;99329.47;;;19.94;100.00
17772;BME280;9010;32.624;-96.938;2022-11-03T12:31:11;99330.13;;;19.87;100.00
17772;BME280;9010;32.624;-96.938;2022-11-03T12:33:39;99329.13;;;19.78;100.00
17772;BME280;9010;32.624;-96.938;2022-11-03T12:36:08;99334.47;;;19.78;100.00
17772;BME280;9010;32.624;-96.938;2022-11-03T12:38:36;99341.53;;;19.98;100.00
17772;BME280;9010;32.624;-96.938;2022-11-03T12:41:05;99332.78;;;19.87;100.00
17772;BME280;9010;32.624;-96.938;2022-11-03T12:43:52;99332.38;;;19.82;100.00
17772;BME280;9010;32.624;-96.938;2022-11-03T12:46:21;99343.19;;;19.90;100.00
17772;BME280;9010;32.624;-96.938;2022-11-03T12:48:50;99349.16;;;20.03;100.00
17772;BME280;9010;32.624;-96.938;2022-11-03T12:51:19;99339.16;;;20.05;100.00
17772;BME280;9010;32.624;-96.938;2022-11-03T12:53:48;99346.88;;;19.89;100.00
17772;BME280;9010;32.624;-96.938;2022-11-03T12:56:17;99350.09;;;19.83;100.00
17772;BME280;9010;32.624;-96.938;2022-11-03T12:58:45;99356.13;;;19.85;100.00
17772;BME280;9010;32.624;-96.938;2022-11-03T13:01:15;99360.91;;;19.91;100.00
17772;BME280;9010;32.624;-96.938;2022-11-03T13:03:44;99348.25;;;19.83;100.00
17772;BME280;9010;32.624;-96.938;2022-11-03T13:06:12;99351.63;;;19.85;100.00
17772;BME280;9010;32.624;-96.938;2022-11-03T13:08:41;99358.78;;;19.85;100.00
17772;BME280;9010;32.624;-96.938;2022-11-03T13:11:09;99355.53;;;19.81;100.00
17772;BME280;9010;32.624;-96.938;2022-11-03T13:13:50;99353.97;;;19.79;100.00
17772;BME280;9010;32.624;-96.938;2022-11-03T13:16:21;99361.44;;;19.85;100.00
17772;BME280;9010;32.624;-96.938;2022-11-03T13:18:49;99369.28;;;19.77;100.00
17772;BME280;9010;32.624;-96.938;2022-11-03T13:21:17;99359.84;;;19.73;100.00
17772;BME280;9010;32.624;-96.938;2022-11-03T13:23:46;99362.78;;;19.70;100.00